Time;durP1;ratioP1;P1;durP2;ratioP2;P2;SDS_P1;SDS_P2;PMS_P1;PMS_P2;Temp;Humidity;BMP_temperature;BMP_pressure;BME280_temperature;BME280_humidity;BME280_pressure;Samples;Min_cycle;Max_cycle;Signal;HPM_P1;HPM_P2
2021/03/17 00:00:54;;;;;;;0.65;0.65;;;6.90;99.90;;;;;;4995457;28;20165;-78
2021/03/17 00:03:20;;;;;;;1.00;1.00;;;6.90;99.90;;;;;;4995507;28;20169;-78
2021/03/17 00:05:47;;;;;;;0.85;0.55;;;6.80;99.90;;;;;;4977850;28;20204;-78
2021/03/17 00:08:15;;;;;;;1.33;0.90;;;6.70;99.90;;;;;;4995310;28;20189;-78
2021/03/17 00:10:43;;;;;;;0.30;0.30;;;6.60;99.90;;;;;;4977852;28;20196;-77
2021/03/17 00:13:09;;;;;;;1.00;0.30;;;6.50;99.90;;;;;;4995234;28;20181;-77
2021/03/17 00:15:37;;;;;;;0.70;0.70;;;6.50;99.90;;;;;;4995248;28;20219;-78
2021/03/17 00:18:04;;;;;;;0.38;0.38;;;6.40;99.90;;;;;;4995025;28;20579;-77
2021/03/17 00:20:30;;;;;;;0.60;0.60;;;6.40;99.90;;;;;;4995063;28;20162;-76
2021/03/17 00:22:56;;;;;;;1.00;1.00;;;6.50;99.90;;;;;;4995093;28;20157;-78
2021/03/17 00:25:27;;;;;;;0.95;0.70;;;6.50;99.90;;;;;;4994876;28;20340;-78
2021/03/17 00:27:52;;;;;;;1.90;1.38;;;6.50;99.90;;;;;;4977380;28;20196;-78
2021/03/17 00:30:18;;;;;;;0.43;0.43;;;6.40;99.90;;;;;;4976746;28;20173;-78
2021/03/17 00:32:44;;;;;;;1.45;1.35;;;6.40;99.90;;;;;;4994818;28;20531;-78
2021/03/17 00:35:10;;;;;;;0.43;0.43;;;6.30;99.90;;;;;;4994770;28;20165;-78
2021/03/17 00:37:35;;;;;;;0.65;0.65;;;6.40;99.90;;;;;;4994716;28;20672;-77
2021/03/17 00:40:02;;;;;;;1.58;1.17;;;6.40;99.90;;;;;;4977445;28;20220;-78
2021/03/17 00:42:28;;;;;;;1.10;1.00;;;6.40;99.90;;;;;;4994621;28;20707;-76
2021/03/17 00:44:53;;;;;;;1.67;1.58;;;6.50;99.90;;;;;;4977366;28;20252;-78
2021/03/17 00:47:19;;;;;;;3.17;0.80;;;6.70;99.90;;;;;;4994877;28;20208;-78
2021/03/17 00:49:44;;;;;;;1.92;1.25;;;6.70;99.90;;;;;;4994651;28;20228;-76
2021/03/17 00:52:10;;;;;;;1.35;1.25;;;7.00;99.90;;;;;;4994911;28;20223;-78
2021/03/17 00:54:35;;;;;;;1.27;1.17;;;6.90;99.90;;;;;;4994602;28;20184;-76
2021/03/17 00:57:01;;;;;;;0.85;0.85;;;7.10;99.90;;;;;;4994288;28;20195;-77
2021/03/17 00:59:26;;;;;;;0.35;0.35;;;7.00;99.90;;;;;;4994377;28;20153;-76
2021/03/17 01:01:52;;;;;;;0.70;0.70;;;7.00;99.90;;;;;;4994351;28;20252;-76
2021/03/17 01:04:18;;;;;;;1.90;1.80;;;7.10;99.90;;;;;;4994226;28;20185;-76
2021/03/17 01:06:43;;;;;;;3.00;2.72;;;7.20;99.90;;;;;;4994276;28;20668;-76
2021/03/17 01:09:09;;;;;;;1.95;1.48;;;7.20;99.90;;;;;;4994120;28;20223;-77
2021/03/17 01:11:35;;;;;;;2.72;2.53;;;6.90;99.90;;;;;;4976682;28;20172;-76
2021/03/17 01:14:00;;;;;;;1.55;1.08;;;6.80;99.90;;;;;;4994134;28;20169;-77
2021/03/17 01:16:26;;;;;;;1.83;1.73;;;6.90;99.90;;;;;;4994046;28;20189;-76
2021/03/17 01:18:51;;;;;;;1.55;1.55;;;6.80;99.90;;;;;;4994204;28;20691;-77
2021/03/17 01:21:17;;;;;;;2.03;1.92;;;6.70;99.90;;;;;;4994266;28;20188;-77
2021/03/17 01:23:43;;;;;;;1.08;1.08;;;6.90;99.90;;;;;;4994258;28;20288;-77
2021/03/17 01:26:08;;;;;;;2.00;1.90;;;7.20;99.90;;;;;;4993734;28;20664;-78
2021/03/17 01:28:34;;;;;;;2.17;1.92;;;7.20;99.90;;;;;;4993934;28;20200;-78
2021/03/17 01:30:59;;;;;;;2.22;2.13;;;7.10;99.90;;;;;;4993916;28;20225;-78
2021/03/17 01:33:27;;;;;;;0.98;0.98;;;7.00;99.90;;;;;;4993768;28;20176;-77
2021/03/17 01:35:53;;;;;;;2.53;2.33;;;7.00;99.90;;;;;;4976508;28;20170;-77
2021/03/17 01:38:19;;;;;;;1.10;1.10;;;6.90;99.90;;;;;;4993642;28;20187;-76
2021/03/17 01:40:46;;;;;;;1.80;1.70;;;7.00;99.90;;;;;;4993798;28;20173;-77
2021/03/17 01:43:12;;;;;;;2.03;1.90;;;7.20;99.90;;;;;;4976110;28;20193;-77
2021/03/17 01:45:38;;;;;;;2.40;2.25;;;7.30;99.90;;;;;;4993831;28;20204;-77
2021/03/17 01:48:05;;;;;;;2.92;2.17;;;7.20;99.90;;;;;;4993627;28;20260;-77
2021/03/17 01:50:39;;;;;;;3.25;2.95;;;7.10;99.90;;;;;;4993481;28;20716;-77
2021/03/17 01:53:10;;;;;;;2.85;2.50;;;7.10;99.90;;;;;;4993871;28;20157;-77
2021/03/17 01:55:37;;;;;;;2.05;1.70;;;7.00;99.90;;;;;;4993857;28;20599;-77
2021/03/17 01:58:03;;;;;;;3.08;2.88;;;6.80;99.90;;;;;;4993903;28;20177;-77
2021/03/17 02:00:30;;;;;;;1.73;1.63;;;6.80;99.90;;;;;;4976378;28;20744;-77
2021/03/17 02:02:56;;;;;;;1.88;1.75;;;6.70;99.90;;;;;;4994029;28;20169;-77
2021/03/17 02:05:38;;;;;;;1.27;1.17;;;6.80;99.90;;;;;;4993771;28;20223;-77
2021/03/17 02:08:12;;;;;;;5.78;2.08;;;6.80;99.90;;;;;;4993541;28;20192;-77
2021/03/17 02:10:38;;;;;;;1.98;1.80;;;6.60;99.90;;;;;;4994041;28;20184;-77
2021/03/17 02:13:16;;;;;;;1.42;1.42;;;6.50;99.90;;;;;;4993842;28;20215;-77
2021/03/17 02:15:51;;;;;;;1.38;1.30;;;6.50;99.90;;;;;;4993883;28;20170;-77
2021/03/17 02:18:28;;;;;;;4.72;2.75;;;6.60;99.90;;;;;;4993719;28;20188;-77
2021/03/17 02:21:15;;;;;;;3.05;2.80;;;6.60;99.90;;;;;;4976336;28;20173;-77
2021/03/17 02:24:08;;;;;;;1.23;0.95;;;6.40;99.90;;;;;;4993500;28;20273;-77
2021/03/17 02:27:10;;;;;;;1.88;1.77;;;6.30;99.90;;;;;;4993439;28;20198;-77
2021/03/17 02:30:07;;;;;;;1.75;1.65;;;6.40;99.90;;;;;;4976581;28;20181;-76
2021/03/17 02:32:32;;;;;;;1.02;1.02;;;6.40;99.90;;;;;;4976167;28;20173;-77
2021/03/17 02:35:03;;;;;;;1.38;1.25;;;6.30;99.90;;;;;;4993518;28;20169;-77
2021/03/17 02:37:29;;;;;;;2.08;1.98;;;6.30;99.90;;;;;;4976120;28;20196;-77
2021/03/17 02:40:02;;;;;;;2.90;2.70;;;6.20;99.90;;;;;;4993863;28;20211;-76
2021/03/17 02:42:34;;;;;;;2.95;2.45;;;6.20;99.90;;;;;;4993589;28;20196;-77
2021/03/17 02:45:16;;;;;;;2.13;2.03;;;6.30;99.90;;;;;;4993376;28;20205;-77
2021/03/17 02:48:10;;;;;;;4.28;1.88;;;6.30;99.90;;;;;;4993408;28;20578;-77
2021/03/17 02:50:37;;;;;;;2.08;0.95;;;6.50;99.90;;;;;;4972963;28;20232;-78
2021/03/17 02:53:04;;;;;;;2.50;2.30;;;6.70;99.90;;;;;;4993524;28;20204;-77
2021/03/17 02:55:36;;;;;;;0.70;0.70;;;6.80;99.90;;;;;;4996298;28;20215;-77
2021/03/17 02:58:03;;;;;;;1.45;1.42;;;6.80;99.90;;;;;;4996826;28;20539;-77
2021/03/17 03:00:30;;;;;;;1.17;1.17;;;6.90;99.90;;;;;;4979324;28;20169;-77
2021/03/17 03:02:58;;;;;;;2.55;2.33;;;6.70;99.90;;;;;;4996833;28;20157;-78
2021/03/17 03:05:24;;;;;;;1.75;1.65;;;6.80;99.90;;;;;;4996779;28;20648;-77
2021/03/17 03:07:53;;;;;;;1.73;1.30;;;6.90;99.90;;;;;;4996983;28;20215;-78
2021/03/17 03:10:21;;;;;;;2.40;1.25;;;7.00;99.90;;;;;;4996849;28;20161;-77
2021/03/17 03:12:51;;;;;;;1.38;1.38;;;6.70;99.90;;;;;;4996935;28;20161;-78
2021/03/17 03:15:23;;;;;;;2.20;1.90;;;6.80;99.90;;;;;;4996709;28;20698;-76
2021/03/17 03:17:50;;;;;;;1.95;1.58;;;6.80;99.90;;;;;;4996630;28;20251;-77
2021/03/17 03:20:19;;;;;;;1.13;1.13;;;6.90;99.90;;;;;;4996618;28;20252;-77
2021/03/17 03:22:47;;;;;;;0.57;0.57;;;6.90;99.90;;;;;;4996669;28;20173;-78
2021/03/17 03:25:15;;;;;;;1.60;1.55;;;6.80;99.90;;;;;;4996602;28;20248;-76
2021/03/17 03:27:41;;;;;;;0.93;0.93;;;6.70;99.90;;;;;;4996419;28;20279;-77
2021/03/17 03:30:20;;;;;;;3.88;1.85;;;6.70;99.90;;;;;;4996524;28;20157;-77
2021/03/17 03:32:45;;;;;;;1.90;1.80;;;6.60;99.90;;;;;;4996885;28;20211;-78
2021/03/17 03:35:13;;;;;;;5.28;1.90;;;6.70;99.90;;;;;;4996351;28;20162;-77
2021/03/17 03:37:39;;;;;;;1.38;1.27;;;6.90;99.90;;;;;;4996351;28;20189;-78
2021/03/17 03:40:11;;;;;;;1.48;1.40;;;7.00;99.90;;;;;;4996446;28;20161;-78
2021/03/17 03:42:36;;;;;;;1.63;1.52;;;7.20;99.90;;;;;;4996779;28;20165;-76
2021/03/17 03:45:04;;;;;;;3.80;1.08;;;7.40;99.90;;;;;;4996160;28;20255;-77
2021/03/17 03:47:30;;;;;;;1.45;1.38;;;7.30;99.90;;;;;;4995863;28;20200;-78
2021/03/17 03:49:55;;;;;;;0.57;0.57;;;7.50;99.90;;;;;;4996247;28;20224;-78
2021/03/17 03:52:34;;;;;;;1.08;1.08;;;7.30;99.90;;;;;;4996238;28;20544;-77
2021/03/17 03:55:22;;;;;;;4.57;2.05;;;7.40;99.90;;;;;;4995978;28;20172;-78
2021/03/17 03:57:49;;;;;;;3.13;1.60;;;7.40;99.90;;;;;;4995439;28;20193;-77
2021/03/17 04:00:26;;;;;;;13.68;1.98;;;7.40;99.90;;;;;;4995539;28;20158;-78
2021/03/17 04:02:52;;;;;;;3.75;1.52;;;7.40;99.90;;;;;;4995572;28;20165;-77
2021/03/17 04:05:22;;;;;;;1.83;1.73;;;7.30;99.90;;;;;;4995573;28;20683;-77
2021/03/17 04:07:50;;;;;;;5.10;2.38;;;7.20;99.90;;;;;;4978069;28;20235;-77
2021/03/17 04:10:19;;;;;;;3.13;1.73;;;7.30;99.90;;;;;;4995955;28;20260;-78
2021/03/17 04:12:46;;;;;;;5.10;2.42;;;7.50;99.90;;;;;;4978506;28;20631;-77
2021/03/17 04:15:14;;;;;;;2.15;2.05;;;7.70;99.90;;;;;;4995439;28;20164;-76
2021/03/17 04:17:49;;;;;;;1.92;1.77;;;7.80;99.90;;;;;;4995153;28;20189;-78
2021/03/17 04:20:19;;;;;;;2.60;2.42;;;7.70;99.90;;;;;;4995509;28;20173;-77
2021/03/17 04:22:47;;;;;;;1.35;1.35;;;7.70;99.90;;;;;;4995453;28;20166;-77
2021/03/17 04:25:14;;;;;;;2.45;1.70;;;7.50;99.90;;;;;;4995138;28;20189;-79
2021/03/17 04:27:45;;;;;;;7.38;3.65;;;7.50;99.90;;;;;;4994995;28;20189;-78
2021/03/17 04:30:12;;;;;;;1.65;1.58;;;7.40;99.90;;;;;;4995607;28;20176;-78
2021/03/17 04:32:42;;;;;;;2.30;2.17;;;7.40;99.90;;;;;;4995164;28;20531;-78
2021/03/17 04:35:08;;;;;;;3.05;1.95;;;7.50;99.90;;;;;;4994954;28;20165;-78
2021/03/17 04:37:35;;;;;;;2.47;1.98;;;7.40;99.90;;;;;;4994762;28;20188;-78
2021/03/17 04:40:02;;;;;;;1.80;1.55;;;7.50;99.90;;;;;;4994958;28;20154;-79
2021/03/17 04:42:29;;;;;;;1.73;1.42;;;7.70;99.90;;;;;;4994798;28;20220;-78
2021/03/17 04:44:55;;;;;;;2.80;2.28;;;7.90;99.90;;;;;;4994818;28;20642;-78
2021/03/17 04:47:22;;;;;;;1.60;1.55;;;8.00;99.90;;;;;;4994431;28;20268;-78
2021/03/17 04:49:49;;;;;;;3.20;2.13;;;7.80;99.90;;;;;;4994595;28;20224;-78
2021/03/17 04:52:17;;;;;;;1.40;1.40;;;7.60;99.90;;;;;;4994998;28;20181;-76
2021/03/17 04:54:44;;;;;;;1.00;0.50;;;7.50;99.90;;;;;;4994554;28;20830;-76
2021/03/17 04:57:14;;;;;;;1.05;1.05;;;7.50;99.90;;;;;;4977152;28;20536;-77
2021/03/17 04:59:41;;;;;;;1.55;1.42;;;7.30;99.90;;;;;;4994608;28;20525;-77
2021/03/17 05:02:10;;;;;;;5.05;2.88;;;7.30;99.90;;;;;;4976833;28;20165;-76
2021/03/17 05:04:38;;;;;;;0.77;0.77;;;7.40;99.90;;;;;;4994388;28;20207;-78
2021/03/17 05:07:05;;;;;;;2.20;2.10;;;7.30;99.90;;;;;;4994655;28;20196;-78
2021/03/17 05:09:33;;;;;;;1.23;1.23;;;7.40;99.90;;;;;;4994614;28;20153;-78
2021/03/17 05:12:03;;;;;;;3.50;1.92;;;7.30;99.90;;;;;;4976946;28;20592;-78
2021/03/17 05:14:31;;;;;;;5.15;1.75;;;7.00;99.90;;;;;;4994350;28;20510;-76
2021/03/17 05:16:59;;;;;;;1.83;1.70;;;6.90;99.90;;;;;;4993692;28;20192;-77
2021/03/17 05:19:26;;;;;;;3.55;1.35;;;7.00;99.90;;;;;;4994552;28;20637;-76
2021/03/17 05:21:52;;;;;;;3.85;2.63;;;7.10;99.90;;;;;;4994084;28;20169;-76
2021/03/17 05:24:18;;;;;;;2.47;2.25;;;7.10;99.90;;;;;;4993980;28;20198;-76
2021/03/17 05:26:44;;;;;;;1.85;1.38;;;7.30;99.90;;;;;;4994042;28;20235;-77
2021/03/17 05:29:11;;;;;;;1.08;1.00;;;7.50;99.90;;;;;;4993829;28;20220;-77
2021/03/17 05:31:38;;;;;;;0.57;0.57;;;7.40;99.90;;;;;;4994295;28;20199;-77
2021/03/17 05:34:03;;;;;;;4.65;1.38;;;7.30;99.90;;;;;;4993898;28;20172;-77
2021/03/17 05:36:31;;;;;;;2.53;2.05;;;7.20;99.90;;;;;;4993940;28;20192;-76
2021/03/17 05:38:56;;;;;;;1.40;1.30;;;7.20;99.90;;;;;;4993973;28;20248;-77
2021/03/17 05:41:22;;;;;;;1.30;1.20;;;7.30;99.90;;;;;;4994468;28;20569;-77
2021/03/17 05:43:48;;;;;;;2.22;2.13;;;7.20;99.90;;;;;;4994299;28;20165;-77
2021/03/17 05:46:15;;;;;;;2.13;1.98;;;7.10;99.90;;;;;;4993965;28;20200;-77
2021/03/17 05:48:42;;;;;;;2.08;1.88;;;7.00;99.90;;;;;;4993843;28;20197;-77
2021/03/17 05:51:08;;;;;;;1.88;1.77;;;7.00;99.90;;;;;;4993673;28;20177;-77
2021/03/17 05:53:34;;;;;;;4.28;1.90;;;7.00;99.90;;;;;;4993768;28;20165;-77
2021/03/17 05:56:01;;;;;;;0.75;0.75;;;7.00;99.90;;;;;;4994234;28;20173;-77
2021/03/17 05:58:28;;;;;;;0.50;0.50;;;7.00;99.90;;;;;;4993583;28;20261;-77
2021/03/17 06:00:53;;;;;;;0.70;0.70;;;6.90;99.90;;;;;;4993427;28;20200;-77
2021/03/17 06:03:20;;;;;;;1.25;1.25;;;7.00;99.90;;;;;;4975835;28;20690;-78
2021/03/17 06:05:47;;;;;;;1.67;1.55;;;7.00;99.90;;;;;;4975920;28;20287;-78
2021/03/17 06:08:14;;;;;;;1.75;1.65;;;7.00;99.90;;;;;;4993726;28;20193;-78
2021/03/17 06:10:40;;;;;;;1.67;1.55;;;7.20;99.90;;;;;;4994183;28;20169;-77
2021/03/17 06:13:12;;;;;;;2.78;1.42;;;7.40;99.90;;;;;;4994042;28;20240;-78
2021/03/17 06:15:41;;;;;;;2.80;1.20;;;7.40;99.90;;;;;;4994007;28;20180;-76
2021/03/17 06:18:16;;;;;;;0.30;0.30;;;7.40;99.90;;;;;;4993932;28;20217;-78
2021/03/17 06:20:45;;;;;;;1.10;1.08;;;7.40;99.90;;;;;;4993530;28;20172;-77
2021/03/17 06:23:12;;;;;;;0.70;0.70;;;7.20;99.90;;;;;;4993399;28;20161;-78
2021/03/17 06:25:40;;;;;;;0.98;0.93;;;7.30;99.90;;;;;;4993215;28;20205;-78
2021/03/17 06:28:07;;;;;;;1.50;1.35;;;7.40;99.90;;;;;;4993051;28;20228;-76
2021/03/17 06:30:32;;;;;;;0.98;0.98;;;7.30;99.90;;;;;;4996366;28;20235;-77
2021/03/17 06:32:58;;;;;;;1.08;0.98;;;7.40;99.90;;;;;;4979589;28;20261;-78
2021/03/17 06:35:25;;;;;;;0.75;0.75;;;7.30;99.90;;;;;;4996830;28;20177;-78
2021/03/17 06:37:52;;;;;;;1.52;1.42;;;7.30;99.90;;;;;;4996874;28;20185;-78
2021/03/17 06:40:35;;;;;;;1.08;1.08;;;7.40;99.90;;;;;;4979689;28;20181;-77
2021/03/17 06:43:08;;;;;;;0.57;0.57;;;7.40;99.90;;;;;;4997104;28;20171;-79
2021/03/17 06:45:35;;;;;;;0.73;0.73;;;7.50;99.90;;;;;;4996524;28;20279;-77
2021/03/17 06:48:24;;;;;;;0.93;0.90;;;7.70;99.90;;;;;;4996096;28;20240;-79
2021/03/17 06:51:09;;;;;;;2.30;1.27;;;7.80;99.90;;;;;;4979088;28;20193;-78
2021/03/17 06:53:53;;;;;;;0.50;0.50;;;7.90;99.90;;;;;;4996435;28;20174;-78
2021/03/17 06:56:27;;;;;;;0.52;0.52;;;7.90;99.90;;;;;;4995649;28;20161;-77
2021/03/17 06:58:52;;;;;;;0.40;0.40;;;8.10;99.90;;;;;;4996542;28;20177;-77
2021/03/17 07:01:37;;;;;;;1.17;1.08;;;8.20;99.90;;;;;;4997152;28;20621;-76
2021/03/17 07:04:07;;;;;;;6.13;3.20;;;8.20;99.90;;;;;;4996383;28;20263;-77
2021/03/17 07:06:34;;;;;;;0.85;0.85;;;8.40;99.90;;;;;;4995720;28;20244;-77
2021/03/17 07:09:13;;;;;;;1.42;0.98;;;8.40;99.90;;;;;;4995932;28;20173;-76
2021/03/17 07:11:38;;;;;;;0.75;0.57;;;8.60;99.90;;;;;;4995927;28;20173;-77
2021/03/17 07:14:04;;;;;;;0.82;0.82;;;8.60;99.90;;;;;;4995563;28;20494;-77
2021/03/17 07:16:40;;;;;;;0.30;0.30;;;8.50;99.90;;;;;;4995910;28;20545;-78
2021/03/17 07:19:07;;;;;;;0.65;0.65;;;8.60;99.90;;;;;;4983807;28;20268;-78
2021/03/17 07:21:38;;;;;;;1.38;1.27;;;8.40;99.90;;;;;;4976214;28;20634;-78
2021/03/17 07:24:06;;;;;;;1.45;0.85;;;8.10;99.90;;;;;;4976039;28;20568;-78
2021/03/17 07:26:33;;;;;;;0.30;0.30;;;8.10;99.90;;;;;;4975983;28;20213;-77
2021/03/17 07:29:11;;;;;;;0.45;0.45;;;8.10;99.90;;;;;;4975930;28;20694;-77
2021/03/17 07:31:44;;;;;;;4.28;1.08;;;8.20;99.90;;;;;;4958679;28;20197;-79
2021/03/17 07:34:20;;;;;;;0.55;0.55;;;8.20;99.90;;;;;;4976086;28;20200;-77
2021/03/17 07:36:57;;;;;;;0.20;0.20;;;8.40;99.90;;;;;;4958451;28;20305;-77
2021/03/17 07:39:28;;;;;;;1.35;0.90;;;8.50;99.90;;;;;;4975760;28;20158;-77
2021/03/17 07:41:56;;;;;;;3.28;0.88;;;8.70;99.90;;;;;;4975847;28;20173;-76
2021/03/17 07:44:22;;;;;;;0.82;0.55;;;8.90;99.90;;;;;;4975564;28;20166;-76
2021/03/17 07:46:57;;;;;;;0.95;0.95;;;8.90;99.90;;;;;;4975994;28;20197;-76
2021/03/17 07:49:26;;;;;;;0.68;0.68;;;8.90;99.90;;;;;;4976002;28;20216;-76
2021/03/17 07:52:00;;;;;;;0.70;0.70;;;8.80;99.90;;;;;;4976018;28;20696;-77
2021/03/17 07:54:30;;;;;;;0.95;0.80;;;8.80;99.90;;;;;;4976000;28;20181;-77
2021/03/17 07:57:01;;;;;;;0.57;0.57;;;8.80;99.90;;;;;;4975806;28;20190;-77
2021/03/17 07:59:27;;;;;;;0.40;0.40;;;8.60;99.90;;;;;;4975906;28;20158;-77
2021/03/17 08:01:57;;;;;;;0.30;0.30;;;8.60;99.90;;;;;;4975823;28;20177;-77
2021/03/17 08:04:31;;;;;;;14.07;0.55;;;8.70;99.90;;;;;;4975921;28;20732;-79
2021/03/17 08:07:01;;;;;;;0.17;0.17;;;8.80;99.90;;;;;;4975707;28;20197;-77
2021/03/17 08:09:27;;;;;;;0.52;0.52;;;8.70;99.90;;;;;;4975729;28;20166;-77
2021/03/17 08:11:55;;;;;;;0.65;0.63;;;8.90;99.90;;;;;;4974461;28;20189;-77
2021/03/17 08:14:22;;;;;;;0.10;0.10;;;8.70;99.90;;;;;;4975296;28;20162;-76
2021/03/17 08:16:48;;;;;;;0.45;0.17;;;8.60;99.90;;;;;;4975035;28;20201;-75
2021/03/17 08:19:18;;;;;;;0.10;0.10;;;8.60;99.90;;;;;;4975776;28;20694;-74
2021/03/17 08:22:02;;;;;;;0.10;0.10;;;8.80;99.90;;;;;;4975366;28;20181;-74
2021/03/17 08:24:32;;;;;;;0.10;0.10;;;8.60;99.90;;;;;;4975142;28;20173;-75
2021/03/17 08:27:00;;;;;;;0.13;0.13;;;8.70;99.90;;;;;;4975173;28;20209;-75
2021/03/17 08:29:40;;;;;;;0.20;0.20;;;8.80;99.90;;;;;;4975154;28;20158;-74
2021/03/17 08:32:07;;;;;;;2.60;1.65;;;8.80;99.90;;;;;;4974996;28;20173;-75
2021/03/17 08:34:34;;;;;;;0.10;0.10;;;8.50;99.90;;;;;;4975075;28;20169;-76
2021/03/17 08:37:08;;;;;;;0.30;0.30;;;8.60;99.90;;;;;;4973185;28;20284;-77
2021/03/17 08:39:36;;;;;;;0.20;0.20;;;8.40;99.90;;;;;;4979839;28;20174;-76
2021/03/17 08:42:02;;;;;;;2.17;1.42;;;8.30;99.90;;;;;;4973537;28;20535;-74
2021/03/17 08:44:30;;;;;;;0.35;0.35;;;8.40;99.90;;;;;;4974466;28;20186;-76
2021/03/17 08:47:11;;;;;;;0.52;0.30;;;8.40;99.90;;;;;;4973317;28;20561;-75
2021/03/17 08:49:37;;;;;;;1.27;0.70;;;8.20;99.90;;;;;;4968506;28;20672;-76
2021/03/17 08:52:05;;;;;;;0.30;0.30;;;8.30;99.90;;;;;;4973113;28;20260;-77
2021/03/17 08:54:31;;;;;;;0.10;0.10;;;8.20;99.90;;;;;;4974946;28;20158;-78
2021/03/17 08:57:00;;;;;;;0.50;0.45;;;8.30;99.90;;;;;;4974726;28;20208;-77
2021/03/17 08:59:49;;;;;;;0.75;0.75;;;8.20;99.90;;;;;;4974582;28;20162;-77
2021/03/17 09:02:42;;;;;;;0.40;0.40;;;8.40;99.90;;;;;;4974638;28;20170;-78
2021/03/17 09:05:22;;;;;;;0.57;0.57;;;8.10;99.90;;;;;;4974500;28;20205;-77
2021/03/17 09:08:05;;;;;;;0.43;0.43;;;8.10;99.90;;;;;;4980140;28;20197;-78
2021/03/17 09:10:48;;;;;;;0.28;0.28;;;8.10;99.90;;;;;;4955014;28;20182;-78
2021/03/17 09:13:16;;;;;;;0.10;0.10;;;8.30;99.90;;;;;;4974033;28;20162;-79
2021/03/17 09:15:48;;;;;;;1.85;0.35;;;8.50;99.90;;;;;;4973627;28;20257;-78
2021/03/17 09:18:14;;;;;;;0.30;0.30;;;8.60;99.90;;;;;;4973729;28;20609;-78
2021/03/17 09:20:48;;;;;;;0.20;0.20;;;8.60;99.90;;;;;;4974048;28;20521;-78
2021/03/17 09:23:25;;;;;;;0.52;0.52;;;8.90;99.90;;;;;;4973440;28;20249;-78
2021/03/17 09:25:53;;;;;;;0.10;0.10;;;9.10;99.90;;;;;;4971463;28;20244;-79
2021/03/17 09:28:27;;;;;;;0.30;0.30;;;8.90;99.90;;;;;;4972368;28;20257;-77
2021/03/17 09:30:58;;;;;;;1.05;1.00;;;8.90;99.90;;;;;;4972479;28;20660;-76
2021/03/17 09:33:30;;;;;;;0.38;0.35;;;8.70;99.90;;;;;;4971834;28;20170;-76
2021/03/17 09:36:01;;;;;;;0.20;0.20;;;8.60;99.90;;;;;;4972907;28;20302;-77
2021/03/17 09:38:31;;;;;;;1.42;1.13;;;8.50;99.90;;;;;;4973806;28;20166;-76
2021/03/17 09:41:07;;;;;;;1.13;0.68;;;8.30;99.90;;;;;;4970806;28;20186;-75
2021/03/17 09:43:35;;;;;;;0.30;0.30;;;8.40;99.90;;;;;;4972672;28;20648;-75
2021/03/17 09:46:18;;;;;;;0.35;0.35;;;8.30;99.90;;;;;;4972955;28;20578;-78
2021/03/17 09:48:45;;;;;;;0.43;0.43;;;8.30;99.90;;;;;;4973154;28;20595;-76
2021/03/17 09:51:17;;;;;;;0.20;0.20;;;8.30;99.90;;;;;;4970360;28;20255;-76
2021/03/17 09:53:44;;;;;;;0.10;0.10;;;8.30;99.90;;;;;;4971081;28;20256;-75
2021/03/17 09:56:10;;;;;;;0.28;0.28;;;8.30;99.90;;;;;;4970909;28;20166;-75
2021/03/17 09:58:35;;;;;;;0.88;0.57;;;8.20;99.90;;;;;;4972890;28;20184;-75
2021/03/17 10:01:21;;;;;;;0.35;0.35;;;8.30;99.90;;;;;;4972586;28;20166;-76
2021/03/17 10:03:47;;;;;;;0.28;0.28;;;8.40;99.90;;;;;;4974268;28;20649;-76
2021/03/17 10:06:14;;;;;;;0.20;0.20;;;8.40;99.90;;;;;;4976365;28;20244;-75
2021/03/17 10:08:41;;;;;;;0.20;0.20;;;8.50;99.90;;;;;;4976767;28;20173;-74
2021/03/17 10:11:13;;;;;;;0.13;0.13;;;8.40;99.90;;;;;;4976715;28;20188;-76
2021/03/17 10:13:39;;;;;;;0.20;0.20;;;8.10;99.90;;;;;;4976047;28;20514;-75
2021/03/17 10:16:07;;;;;;;0.45;0.45;;;7.90;99.90;;;;;;4977198;28;20173;-75
2021/03/17 10:18:32;;;;;;;0.50;0.50;;;8.10;99.90;;;;;;4975365;28;20236;-75
2021/03/17 10:20:58;;;;;;;0.93;0.60;;;8.30;99.90;;;;;;4976597;28;20169;-75
2021/03/17 10:23:24;;;;;;;0.20;0.20;;;8.10;99.90;;;;;;4976495;28;20162;-75
2021/03/17 10:25:50;;;;;;;0.60;0.60;;;8.10;99.90;;;;;;4976351;28;20210;-75
2021/03/17 10:28:16;;;;;;;0.30;0.30;;;8.10;99.90;;;;;;4976684;28;20229;-75
2021/03/17 10:30:47;;;;;;;0.20;0.20;;;8.10;99.90;;;;;;4976200;28;20229;-74
2021/03/17 10:33:14;;;;;;;0.20;0.20;;;7.90;99.90;;;;;;4976464;28;20166;-75
2021/03/17 10:35:42;;;;;;;0.55;0.55;;;7.70;99.90;;;;;;4974698;28;20185;-76
2021/03/17 10:38:09;;;;;;;0.30;0.30;;;7.70;99.90;;;;;;4976333;28;20190;-76
2021/03/17 10:40:37;;;;;;;0.40;0.40;;;7.70;99.90;;;;;;4975055;28;20189;-75
2021/03/17 10:43:11;;;;;;;0.30;0.30;;;7.80;99.90;;;;;;4976143;28;20182;-76
2021/03/17 10:45:44;;;;;;;4.50;0.98;;;7.90;99.90;;;;;;4975798;28;20245;-76
2021/03/17 10:48:14;;;;;;;0.20;0.20;;;8.20;99.90;;;;;;4975557;28;20206;-76
2021/03/17 10:50:40;;;;;;;0.55;0.55;;;8.10;99.90;;;;;;4975866;28;20221;-75
2021/03/17 10:53:26;;;;;;;0.20;0.20;;;7.90;99.90;;;;;;4975647;28;20193;-74
2021/03/17 10:55:53;;;;;;;0.45;0.45;;;7.80;99.90;;;;;;4981410;28;20180;-76
2021/03/17 10:58:28;;;;;;;0.43;0.43;;;7.80;99.90;;;;;;4995482;28;20676;-76
2021/03/17 11:00:56;;;;;;;0.65;0.45;;;7.90;99.90;;;;;;4994865;28;20179;-75
2021/03/17 11:03:28;;;;;;;1.30;0.63;;;7.70;99.90;;;;;;4993651;28;20494;-74
2021/03/17 11:06:14;;;;;;;0.50;0.50;;;7.80;99.90;;;;;;4990613;28;20202;-76
2021/03/17 11:08:41;;;;;;;0.30;0.30;;;8.00;99.90;;;;;;4976092;28;20281;-76
2021/03/17 11:11:08;;;;;;;0.10;0.10;;;8.10;99.90;;;;;;4975699;28;20646;-76
2021/03/17 11:13:36;;;;;;;0.45;0.45;;;8.10;99.90;;;;;;4975028;28;20253;-77
2021/03/17 11:16:06;;;;;;;0.20;0.20;;;7.90;99.90;;;;;;4974021;28;20249;-78
2021/03/17 11:18:44;;;;;;;0.30;0.30;;;7.80;99.90;;;;;;4975368;28;20174;-77
2021/03/17 11:21:34;;;;;;;0.13;0.13;;;7.70;99.90;;;;;;4975324;28;20192;-77
2021/03/17 11:24:04;;;;;;;0.90;0.90;;;7.70;99.90;;;;;;4975178;28;20575;-78
2021/03/17 11:26:34;;;;;;;0.85;0.77;;;7.60;99.90;;;;;;4975358;28;20296;-79
2021/03/17 11:29:01;;;;;;;0.32;0.30;;;7.60;99.90;;;;;;4974581;28;20506;-80
2021/03/17 11:31:35;;;;;;;0.10;0.10;;;7.60;99.90;;;;;;4974248;28;20166;-78
2021/03/17 11:34:01;;;;;;;0.20;0.20;;;7.50;99.90;;;;;;4974826;28;20241;-77
2021/03/17 11:36:29;;;;;;;0.10;0.10;;;7.60;99.90;;;;;;4975923;28;20186;-78
2021/03/17 11:38:57;;;;;;;0.10;0.10;;;7.70;99.90;;;;;;4974925;28;20176;-78
2021/03/17 11:41:24;;;;;;;2.00;1.20;;;7.70;99.90;;;;;;4975445;28;20162;-78
2021/03/17 11:43:50;;;;;;;0.10;0.10;;;7.80;99.90;;;;;;4974844;28;20678;-77
2021/03/17 11:46:17;;;;;;;0.30;0.30;;;7.80;99.90;;;;;;4975666;28;20201;-78
2021/03/17 11:48:42;;;;;;;0.30;0.30;;;7.90;99.90;;;;;;4975118;28;20221;-78
2021/03/17 11:51:09;;;;;;;0.20;0.20;;;7.80;99.90;;;;;;4975623;28;20197;-77
2021/03/17 11:53:36;;;;;;;0.10;0.10;;;7.80;99.90;;;;;;4975040;28;20265;-75
2021/03/17 11:56:03;;;;;;;0.98;0.98;;;7.90;99.90;;;;;;4974269;28;20205;-79
2021/03/17 11:58:29;;;;;;;0.20;0.20;;;8.10;99.90;;;;;;4974728;28;20180;-78
2021/03/17 12:00:54;;;;;;;0.17;0.17;;;8.50;99.90;;;;;;4975377;28;20170;-77
2021/03/17 12:03:20;;;;;;;0.15;0.15;;;8.60;99.90;;;;;;4975665;28;20200;-79
2021/03/17 12:05:46;;;;;;;0.10;0.10;;;8.40;99.90;;;;;;4974724;28;20210;-78
2021/03/17 12:08:13;;;;;;;0.13;0.13;;;8.40;99.90;;;;;;4975098;28;20185;-78
2021/03/17 12:10:39;;;;;;;0.40;0.40;;;8.40;99.90;;;;;;4973694;28;20664;-76
2021/03/17 12:13:04;;;;;;;0.28;0.28;;;8.60;99.90;;;;;;4974826;28;20167;-79
2021/03/17 12:15:30;;;;;;;0.20;0.20;;;8.60;99.90;;;;;;4973424;28;20173;-76
2021/03/17 12:17:56;;;;;;;0.30;0.30;;;8.40;99.90;;;;;;4975558;28;20196;-76
2021/03/17 12:20:25;;;;;;;0.20;0.20;;;8.20;99.90;;;;;;4975294;28;20633;-75
2021/03/17 12:22:51;;;;;;;0.40;0.35;;;8.20;99.90;;;;;;4974876;28;20258;-75
2021/03/17 12:25:17;;;;;;;0.55;0.55;;;8.00;99.90;;;;;;4975451;28;20231;-76
2021/03/17 12:27:43;;;;;;;0.38;0.38;;;8.00;99.90;;;;;;4993727;28;20196;-77
2021/03/17 12:30:12;;;;;;;15.98;2.38;;;8.20;99.90;;;;;;4994713;28;20193;-77
2021/03/17 12:32:38;;;;;;;0.60;0.60;;;8.40;99.90;;;;;;4994291;28;20181;-76
2021/03/17 12:35:09;;;;;;;0.20;0.20;;;8.60;99.90;;;;;;4993866;28;20235;-76
2021/03/17 12:37:36;;;;;;;0.63;0.63;;;8.80;99.90;;;;;;4994046;28;20201;-77
2021/03/17 12:40:02;;;;;;;5.38;0.68;;;9.20;99.90;;;;;;4992787;28;20168;-77
2021/03/17 12:42:28;;;;;;;0.20;0.20;;;9.30;99.90;;;;;;4994135;28;20303;-76
2021/03/17 12:44:54;;;;;;;0.20;0.20;;;9.40;99.90;;;;;;4993649;28;20287;-76
2021/03/17 12:47:19;;;;;;;0.20;0.20;;;9.30;99.90;;;;;;4993851;28;20193;-77
2021/03/17 12:49:45;;;;;;;0.28;0.28;;;9.30;99.90;;;;;;4993951;28;20227;-77
2021/03/17 12:52:11;;;;;;;0.25;0.25;;;9.40;99.90;;;;;;4993886;28;20179;-76
2021/03/17 12:54:37;;;;;;;0.10;0.10;;;9.30;99.90;;;;;;4993949;28;20170;-77
2021/03/17 12:57:04;;;;;;;0.20;0.20;;;9.70;99.90;;;;;;4993472;28;20201;-77
2021/03/17 12:59:30;;;;;;;0.98;0.77;;;10.10;99.90;;;;;;4992156;28;20637;-77
2021/03/17 13:01:56;;;;;;;0.20;0.20;;;10.30;99.90;;;;;;4993747;28;20173;-76
2021/03/17 13:04:21;;;;;;;0.20;0.20;;;10.40;99.90;;;;;;4993587;28;20166;-76
2021/03/17 13:06:47;;;;;;;0.20;0.20;;;10.40;99.90;;;;;;4993703;28;20263;-75
2021/03/17 13:09:13;;;;;;;0.15;0.15;;;10.30;99.90;;;;;;4993505;28;20196;-75